sensor_id;sensor_type;location;lat;lon;timestamp;pressure;altitude;pressure_sealevel;temperature;humidity
7058;BME280;3570;43.080;25.628;2023-08-07T00:02:12;-20010.50;;;19.17;100.00
7058;BME280;3570;43.080;25.628;2023-08-07T00:04:56;-20008.75;;;19.11;100.00
7058;BME280;3570;43.080;25.628;2023-08-07T00:07:41;-20005.56;;;19.00;100.00
7058;BME280;3570;43.080;25.628;2023-08-07T00:10:25;-20006.44;;;19.03;100.00
7058;BME280;3570;43.080;25.628;2023-08-07T00:13:09;-20002.81;;;18.91;100.00
7058;BME280;3570;43.080;25.628;2023-08-07T00:15:53;-19997.44;;;18.72;100.00
7058;BME280;3570;43.080;25.628;2023-08-07T00:18:37;-20002.81;;;18.91;100.00
7058;BME280;3570;43.080;25.628;2023-08-07T00:21:22;-19996.88;;;18.70;100.00
7058;BME280;3570;43.080;25.628;2023-08-07T00:24:07;-20002.81;;;18.91;100.00
7058;BME280;3570;43.080;25.628;2023-08-07T00:26:50;-20001.50;;;18.86;100.00
7058;BME280;3570;43.080;25.628;2023-08-07T00:29:34;-20001.50;;;18.86;100.00
7058;BME280;3570;43.080;25.628;2023-08-07T00:32:18;-19998.47;;;18.75;100.00
7058;BME280;3570;43.080;25.628;2023-08-07T00:35:02;-20004.56;;;18.97;100.00
7058;BME280;3570;43.080;25.628;2023-08-07T00:37:48;-20005.88;;;19.01;100.00
7058;BME280;3570;43.080;25.628;2023-08-07T00:40:38;-20005.56;;;19.00;100.00
7058;BME280;3570;43.080;25.628;2023-08-07T00:43:23;-20006.72;;;19.04;100.00
7058;BME280;3570;43.080;25.628;2023-08-07T00:46:07;-20003.84;;;18.94;100.00
7058;BME280;3570;43.080;25.628;2023-08-07T00:48:52;-20001.50;;;18.86;100.00
7058;BME280;3570;43.080;25.628;2023-08-07T00:51:37;-19996.00;;;18.67;100.00
7058;BME280;3570;43.080;25.628;2023-08-07T00:54:22;-20000.63;;;18.83;100.00
7058;BME280;3570;43.080;25.628;2023-08-07T00:57:10;-19994.53;;;18.62;100.00
7058;BME280;3570;43.080;25.628;2023-08-07T00:59:55;-19999.34;;;18.78;100.00
7058;BME280;3570;43.080;25.628;2023-08-07T01:02:40;-19999.03;;;18.77;100.00
7058;BME280;3570;43.080;25.628;2023-08-07T01:05:24;-19999.91;;;18.81;100.00
7058;BME280;3570;43.080;25.628;2023-08-07T01:08:10;-20000.94;;;18.84;100.00
7058;BME280;3570;43.080;25.628;2023-08-07T01:11:20;-19999.78;;;18.80;100.00
7058;BME280;3570;43.080;25.628;2023-08-07T01:17:16;-19988.75;;;18.42;100.00
7058;BME280;3570;43.080;25.628;2023-08-07T01:20:00;-19992.06;;;18.53;100.00
7058;BME280;3570;43.080;25.628;2023-08-07T01:22:45;-19993.09;;;18.57;100.00
7058;BME280;3570;43.080;25.628;2023-08-07T01:25:30;-19996.88;;;18.70;100.00
7058;BME280;3570;43.080;25.628;2023-08-07T01:28:27;-19998.16;;;18.74;100.00
7058;BME280;3570;43.080;25.628;2023-08-07T01:31:20;-19998.91;;;18.77;100.00
7058;BME280;3570;43.080;25.628;2023-08-07T01:34:07;-19986.69;;;18.35;100.00
7058;BME280;3570;43.080;25.628;2023-08-07T01:36:53;-19990.63;;;18.48;100.00
7058;BME280;3570;43.080;25.628;2023-08-07T01:39:39;-19989.03;;;18.43;100.00
7058;BME280;3570;43.080;25.628;2023-08-07T01:42:24;-19985.53;;;18.31;100.00
7058;BME280;3570;43.080;25.628;2023-08-07T01:45:09;-19983.94;;;18.25;100.00
7058;BME280;3570;43.080;25.628;2023-08-07T01:47:53;-19983.94;;;18.25;100.00
7058;BME280;3570;43.080;25.628;2023-08-07T01:50:38;-19982.63;;;18.21;100.00
7058;BME280;3570;43.080;25.628;2023-08-07T01:53:22;-19978.84;;;18.08;100.00
7058;BME280;3570;43.080;25.628;2023-08-07T01:56:06;-19980.47;;;18.13;100.00
7058;BME280;3570;43.080;25.628;2023-08-07T01:58:50;-19983.50;;;18.24;100.00
7058;BME280;3570;43.080;25.628;2023-08-07T02:01:34;-19981.34;;;18.16;100.00
7058;BME280;3570;43.080;25.628;2023-08-07T02:04:18;-19980.03;;;18.12;100.00
7058;BME280;3570;43.080;25.628;2023-08-07T02:07:02;-19970.88;;;17.80;100.00
7058;BME280;3570;43.080;25.628;2023-08-07T02:09:47;-19975.38;;;17.96;100.00
7058;BME280;3570;43.080;25.628;2023-08-07T02:12:31;-19972.75;;;17.86;100.00
7058;BME280;3570;43.080;25.628;2023-08-07T02:15:16;-19981.34;;;18.16;100.00
7058;BME280;3570;43.080;25.628;2023-08-07T02:18:00;-19971.88;;;17.83;100.00
7058;BME280;3570;43.080;25.628;2023-08-07T02:20:44;-19966.53;;;17.65;100.00
7058;BME280;3570;43.080;25.628;2023-08-07T02:23:30;-19969.84;;;17.76;100.00
7058;BME280;3570;43.080;25.628;2023-08-07T02:26:14;-19965.06;;;17.60;100.00
7058;BME280;3570;43.080;25.628;2023-08-07T02:28:57;-19971.88;;;17.83;100.00
7058;BME280;3570;43.080;25.628;2023-08-07T02:31:41;-19968.69;;;17.72;100.00
7058;BME280;3570;43.080;25.628;2023-08-07T02:34:25;-19972.63;;;17.86;100.00
7058;BME280;3570;43.080;25.628;2023-08-07T02:37:09;-19971.47;;;17.82;100.00
7058;BME280;3570;43.080;25.628;2023-08-07T02:39:53;-19971.16;;;17.81;100.00
7058;BME280;3570;43.080;25.628;2023-08-07T02:42:38;-19966.66;;;17.65;100.00
7058;BME280;3570;43.080;25.628;2023-08-07T02:45:22;-19955.75;;;17.28;100.00
7058;BME280;3570;43.080;25.628;2023-08-07T02:48:05;-19956.78;;;17.31;100.00
7058;BME280;3570;43.080;25.628;2023-08-07T02:50:49;-19967.09;;;17.67;100.00
7058;BME280;3570;43.080;25.628;2023-08-07T02:53:35;-19957.38;;;17.33;100.00
7058;BME280;3570;43.080;25.628;2023-08-07T02:56:19;-19950.38;;;17.09;100.00
7058;BME280;3570;43.080;25.628;2023-08-07T02:59:03;-19954.44;;;17.23;100.00
7058;BME280;3570;43.080;25.628;2023-08-07T03:01:50;-19953.72;;;17.21;100.00
7058;BME280;3570;43.080;25.628;2023-08-07T03:04:34;-19953.88;;;17.21;100.00
7058;BME280;3570;43.080;25.628;2023-08-07T03:07:18;-19955.03;;;17.25;100.00
7058;BME280;3570;43.080;25.628;2023-08-07T03:10:02;-19950.09;;;17.08;100.00
7058;BME280;3570;43.080;25.628;2023-08-07T03:12:47;-19954.59;;;17.24;100.00
7058;BME280;3570;43.080;25.628;2023-08-07T03:15:31;-19948.66;;;17.03;100.00
7058;BME280;3570;43.080;25.628;2023-08-07T03:18:18;-19957.38;;;17.33;100.00
7058;BME280;3570;43.080;25.628;2023-08-07T03:21:03;-19959.41;;;17.40;100.00
7058;BME280;3570;43.080;25.628;2023-08-07T03:23:47;-19960.13;;;17.43;100.00
7058;BME280;3570;43.080;25.628;2023-08-07T03:26:31;-19965.78;;;17.62;100.00
7058;BME280;3570;43.080;25.628;2023-08-07T03:29:15;-19967.69;;;17.69;100.00
7058;BME280;3570;43.080;25.628;2023-08-07T03:31:59;-19961.88;;;17.49;100.00
7058;BME280;3570;43.080;25.628;2023-08-07T03:34:43;-19965.06;;;17.60;100.00
7058;BME280;3570;43.080;25.628;2023-08-07T03:37:27;-19964.47;;;17.58;100.00
7058;BME280;3570;43.080;25.628;2023-08-07T03:40:11;-19964.19;;;17.57;100.00
7058;BME280;3570;43.080;25.628;2023-08-07T03:42:55;-19963.75;;;17.55;100.00
7058;BME280;3570;43.080;25.628;2023-08-07T03:45:39;-19959.09;;;17.39;100.00
7058;BME280;3570;43.080;25.628;2023-08-07T03:48:23;-19964.91;;;17.59;100.00
7058;BME280;3570;43.080;25.628;2023-08-07T03:51:07;-19961.00;;;17.46;100.00
7058;BME280;3570;43.080;25.628;2023-08-07T03:53:51;-19963.19;;;17.53;100.00
7058;BME280;3570;43.080;25.628;2023-08-07T03:56:35;-19955.91;;;17.28;100.00
7058;BME280;3570;43.080;25.628;2023-08-07T03:59:20;-19960.56;;;17.44;100.00
7058;BME280;3570;43.080;25.628;2023-08-07T04:02:04;-19962.00;;;17.49;100.00
7058;BME280;3570;43.080;25.628;2023-08-07T04:04:48;-19961.28;;;17.47;100.00
7058;BME280;3570;43.080;25.628;2023-08-07T04:07:32;-19956.06;;;17.29;100.00
7058;BME280;3570;43.080;25.628;2023-08-07T04:10:17;-19963.31;;;17.54;100.00
7058;BME280;3570;43.080;25.628;2023-08-07T04:13:00;-19970.88;;;17.80;100.00
7058;BME280;3570;43.080;25.628;2023-08-07T04:15:44;-19972.63;;;17.86;100.00
7058;BME280;3570;43.080;25.628;2023-08-07T04:18:28;-19976.69;;;18.00;100.00
7058;BME280;3570;43.080;25.628;2023-08-07T04:21:12;-19981.75;;;18.18;100.00
7058;BME280;3570;43.080;25.628;2023-08-07T04:23:56;-19975.66;;;17.97;100.00
7058;BME280;3570;43.080;25.628;2023-08-07T04:26:40;-19983.50;;;18.24;100.00
7058;BME280;3570;43.080;25.628;2023-08-07T04:29:24;-19984.22;;;18.26;100.00
7058;BME280;3570;43.080;25.628;2023-08-07T04:32:09;-19992.81;;;18.56;100.00
7058;BME280;3570;43.080;25.628;2023-08-07T04:34:53;-19994.84;;;18.63;100.00
7058;BME280;3570;43.080;25.628;2023-08-07T04:37:37;-19998.75;;;18.76;100.00
7058;BME280;3570;43.080;25.628;2023-08-07T04:40:21;-20008.75;;;19.11;100.00
7058;BME280;3570;43.080;25.628;2023-08-07T04:43:05;-20020.66;;;19.52;100.00
7058;BME280;3570;43.080;25.628;2023-08-07T04:45:49;-20032.84;;;19.95;100.00
7058;BME280;3570;43.080;25.628;2023-08-07T04:48:33;-20028.06;;;19.78;100.00
7058;BME280;3570;43.080;25.628;2023-08-07T04:51:17;-20020.38;;;19.51;100.00
7058;BME280;3570;43.080;25.628;2023-08-07T04:54:01;-20008.75;;;19.11;100.00
7058;BME280;3570;43.080;25.628;2023-08-07T04:56:45;-20014.13;;;19.30;100.00
7058;BME280;3570;43.080;25.628;2023-08-07T04:59:29;-20008.63;;;19.11;100.00
7058;BME280;3570;43.080;25.628;2023-08-07T05:02:14;-19999.34;;;18.78;100.00
7058;BME280;3570;43.080;25.628;2023-08-07T05:04:58;-19992.81;;;18.56;100.00
7058;BME280;3570;43.080;25.628;2023-08-07T05:07:42;-20011.97;;;19.22;100.00
7058;BME280;3570;43.080;25.628;2023-08-07T05:10:26;-20011.97;;;19.22;100.00
7058;BME280;3570;43.080;25.628;2023-08-07T05:13:10;-20008.75;;;19.11;100.00
7058;BME280;3570;43.080;25.628;2023-08-07T05:15:54;-20006.16;;;19.02;100.00
7058;BME280;3570;43.080;25.628;2023-08-07T05:18:38;-20009.34;;;19.13;100.00
7058;BME280;3570;43.080;25.628;2023-08-07T05:21:22;-20010.22;;;19.16;100.00
7058;BME280;3570;43.080;25.628;2023-08-07T05:24:06;-20011.53;;;19.21;100.00
7058;BME280;3570;43.080;25.628;2023-08-07T05:26:50;-20009.34;;;19.13;100.00
7058;BME280;3570;43.080;25.628;2023-08-07T05:29:37;-20017.19;;;19.40;100.00
7058;BME280;3570;43.080;25.628;2023-08-07T05:32:27;-20010.66;;;19.18;100.00
7058;BME280;3570;43.080;25.628;2023-08-07T05:35:12;-20019.22;;;19.47;100.00
7058;BME280;3570;43.080;25.628;2023-08-07T05:37:56;-20024.13;;;19.64;100.00
7058;BME280;3570;43.080;25.628;2023-08-07T05:40:39;-20028.50;;;19.80;100.00
7058;BME280;3570;43.080;25.628;2023-08-07T05:43:24;-20032.25;;;19.93;100.00
7058;BME280;3570;43.080;25.628;2023-08-07T05:46:08;-20026.75;;;19.74;100.00
7058;BME280;3570;43.080;25.628;2023-08-07T05:48:52;-20034.00;;;19.99;100.00
7058;BME280;3570;43.080;25.628;2023-08-07T05:51:36;-20033.56;;;19.97;100.00
7058;BME280;3570;43.080;25.628;2023-08-07T05:54:20;-20034.00;;;19.99;100.00
7058;BME280;3570;43.080;25.628;2023-08-07T05:57:05;-20021.53;;;19.55;100.00
7058;BME280;3570;43.080;25.628;2023-08-07T05:59:50;-20040.66;;;20.22;100.00
7058;BME280;3570;43.080;25.628;2023-08-07T06:02:33;-20050.97;;;20.57;100.00
7058;BME280;3570;43.080;25.628;2023-08-07T06:05:17;-20041.84;;;20.26;100.00
7058;BME280;3570;43.080;25.628;2023-08-07T06:08:01;-20044.00;;;20.33;100.00
7058;BME280;3570;43.080;25.628;2023-08-07T06:10:45;-20045.91;;;20.40;100.00
7058;BME280;3570;43.080;25.628;2023-08-07T06:13:30;-20051.41;;;20.59;100.00
7058;BME280;3570;43.080;25.628;2023-08-07T06:16:14;-20055.75;;;20.74;100.00
7058;BME280;3570;43.080;25.628;2023-08-07T06:18:58;-20056.47;;;20.77;100.00
7058;BME280;3570;43.080;25.628;2023-08-07T06:21:42;-20057.63;;;20.81;100.00
7058;BME280;3570;43.080;25.628;2023-08-07T06:24:26;-20055.44;;;20.73;100.00
7058;BME280;3570;43.080;25.628;2023-08-07T06:27:10;-20054.59;;;20.70;100.00
7058;BME280;3570;43.080;25.628;2023-08-07T06:29:54;-20063.88;;;21.02;100.00
7058;BME280;3570;43.080;25.628;2023-08-07T06:32:39;-20068.50;;;21.18;100.00
7058;BME280;3570;43.080;25.628;2023-08-07T06:35:23;-20062.97;;;20.99;96.32
7058;BME280;3570;43.080;25.628;2023-08-07T06:38:08;-20065.75;;;21.09;93.70
7058;BME280;3570;43.080;25.628;2023-08-07T06:40:52;-20073.28;;;21.35;93.48
7058;BME280;3570;43.080;25.628;2023-08-07T06:43:36;-20076.31;;;21.45;92.72
7058;BME280;3570;43.080;25.628;2023-08-07T06:46:20;-20078.63;;;21.53;91.14
7058;BME280;3570;43.080;25.628;2023-08-07T06:49:08;-20072.56;;;21.32;90.14
7058;BME280;3570;43.080;25.628;2023-08-07T06:51:52;-20071.97;;;21.30;87.65
7058;BME280;3570;43.080;25.628;2023-08-07T06:54:36;-20078.34;;;21.52;88.24
7058;BME280;3570;43.080;25.628;2023-08-07T06:57:20;-20083.25;;;21.70;85.58
7058;BME280;3570;43.080;25.628;2023-08-07T07:10:32;-20075.44;;;21.42;84.17
7058;BME280;3570;43.080;25.628;2023-08-07T07:26:16;-20093.25;;;22.04;79.15
7058;BME280;3570;43.080;25.628;2023-08-07T07:29:00;-20088.75;;;21.89;76.97
7058;BME280;3570;43.080;25.628;2023-08-07T07:31:44;-20089.63;;;21.92;77.00
7058;BME280;3570;43.080;25.628;2023-08-07T07:34:28;-20098.59;;;22.23;75.15
7058;BME280;3570;43.080;25.628;2023-08-07T07:37:13;-20102.22;;;22.35;74.28
7058;BME280;3570;43.080;25.628;2023-08-07T07:39:58;-20102.50;;;22.36;75.27
7058;BME280;3570;43.080;25.628;2023-08-07T07:42:42;-20105.41;;;22.46;73.99
7058;BME280;3570;43.080;25.628;2023-08-07T07:45:26;-20102.38;;;22.36;73.11
7058;BME280;3570;43.080;25.628;2023-08-07T07:48:10;-20106.69;;;22.51;72.06
7058;BME280;3570;43.080;25.628;2023-08-07T07:51:01;-20105.53;;;22.47;70.30
7058;BME280;3570;43.080;25.628;2023-08-07T07:53:45;-20108.16;;;22.56;70.98
7058;BME280;3570;43.080;25.628;2023-08-07T07:56:29;-20110.31;;;22.64;72.02
7058;BME280;3570;43.080;25.628;2023-08-07T07:59:13;-20114.94;;;22.80;70.11
7058;BME280;3570;43.080;25.628;2023-08-07T08:01:57;-20121.47;;;23.02;68.74
7058;BME280;3570;43.080;25.628;2023-08-07T08:04:41;-20122.75;;;23.07;69.11
7058;BME280;3570;43.080;25.628;2023-08-07T08:07:25;-20139.09;;;23.64;68.52
7058;BME280;3570;43.080;25.628;2023-08-07T08:10:09;-20134.63;;;23.48;66.63
7058;BME280;3570;43.080;25.628;2023-08-07T08:12:57;-20136.22;;;23.54;64.30
7058;BME280;3570;43.080;25.628;2023-08-07T08:15:41;-20127.38;;;23.23;65.48
7058;BME280;3570;43.080;25.628;2023-08-07T08:18:25;-20124.63;;;23.13;66.03
7058;BME280;3570;43.080;25.628;2023-08-07T08:21:09;-20143.13;;;23.78;65.30
7058;BME280;3570;43.080;25.628;2023-08-07T08:23:52;-20139.53;;;23.65;66.07
7058;BME280;3570;43.080;25.628;2023-08-07T08:26:36;-20127.25;;;23.22;66.07
7058;BME280;3570;43.080;25.628;2023-08-07T08:29:20;-20139.25;;;23.64;66.01
7058;BME280;3570;43.080;25.628;2023-08-07T08:32:04;-20140.81;;;23.70;64.92
7058;BME280;3570;43.080;25.628;2023-08-07T08:34:48;-20139.25;;;23.64;65.04
7058;BME280;3570;43.080;25.628;2023-08-07T08:37:33;-20136.50;;;23.55;64.89
7058;BME280;3570;43.080;25.628;2023-08-07T08:40:17;-20139.66;;;23.66;63.17
7058;BME280;3570;43.080;25.628;2023-08-07T08:43:04;-20147.91;;;23.94;62.04
7058;BME280;3570;43.080;25.628;2023-08-07T08:45:49;-20149.34;;;23.99;63.13
7058;BME280;3570;43.080;25.628;2023-08-07T08:48:38;-20144.44;;;23.82;61.61
7058;BME280;3570;43.080;25.628;2023-08-07T08:51:24;-20153.25;;;24.13;62.23
7058;BME280;3570;43.080;25.628;2023-08-07T08:54:08;-20154.25;;;24.16;60.08
7058;BME280;3570;43.080;25.628;2023-08-07T08:56:53;-20158.16;;;24.30;61.80
7058;BME280;3570;43.080;25.628;2023-08-07T08:59:40;-20160.75;;;24.39;59.20
7058;BME280;3570;43.080;25.628;2023-08-07T09:02:25;-20156.28;;;24.23;58.37
7058;BME280;3570;43.080;25.628;2023-08-07T09:05:10;-20159.03;;;24.33;57.44
7058;BME280;3570;43.080;25.628;2023-08-07T09:07:54;-20157.88;;;24.29;59.17
7058;BME280;3570;43.080;25.628;2023-08-07T09:10:40;-20176.22;;;24.93;54.96
7058;BME280;3570;43.080;25.628;2023-08-07T09:13:27;-20177.94;;;24.99;55.34
7058;BME280;3570;43.080;25.628;2023-08-07T09:16:12;-20181.97;;;25.13;53.00
7058;BME280;3570;43.080;25.628;2023-08-07T09:18:56;-20179.53;;;25.04;55.26
7058;BME280;3570;43.080;25.628;2023-08-07T09:21:40;-20197.41;;;25.67;49.91
7058;BME280;3570;43.080;25.628;2023-08-07T09:24:24;-20189.06;;;25.38;50.62
7058;BME280;3570;43.080;25.628;2023-08-07T09:27:08;-20189.63;;;25.40;49.86
7058;BME280;3570;43.080;25.628;2023-08-07T09:29:54;-20209.53;;;26.09;48.98
7058;BME280;3570;43.080;25.628;2023-08-07T09:32:39;-20206.66;;;25.99;48.52
7058;BME280;3570;43.080;25.628;2023-08-07T09:35:23;-20226.97;;;26.70;48.14
7058;BME280;3570;43.080;25.628;2023-08-07T09:38:07;-20226.53;;;26.68;47.20
7058;BME280;3570;43.080;25.628;2023-08-07T09:40:51;-20230.56;;;26.82;45.38
7058;BME280;3570;43.080;25.628;2023-08-07T09:43:36;-20200.59;;;25.78;47.15
7058;BME280;3570;43.080;25.628;2023-08-07T09:46:20;-20203.75;;;25.89;46.03
7058;BME280;3570;43.080;25.628;2023-08-07T09:49:04;-20218.63;;;26.41;45.41
7058;BME280;3570;43.080;25.628;2023-08-07T09:51:48;-20233.16;;;26.91;44.39
7058;BME280;3570;43.080;25.628;2023-08-07T09:54:34;-20238.06;;;27.09;43.54
7058;BME280;3570;43.080;25.628;2023-08-07T09:57:19;-20249.31;;;27.48;42.31
7058;BME280;3570;43.080;25.628;2023-08-07T10:00:08;-20249.72;;;27.49;43.60
7058;BME280;3570;43.080;25.628;2023-08-07T10:02:55;-20278.22;;;28.49;40.08
7058;BME280;3570;43.080;25.628;2023-08-07T10:05:41;-20243.38;;;27.27;41.59
7058;BME280;3570;43.080;25.628;2023-08-07T10:08:25;-20256.22;;;27.72;40.10
7058;BME280;3570;43.080;25.628;2023-08-07T10:11:10;-20260.66;;;27.87;40.15
7058;BME280;3570;43.080;25.628;2023-08-07T10:13:54;-20277.06;;;28.45;38.52
7058;BME280;3570;43.080;25.628;2023-08-07T10:16:41;-20299.22;;;29.22;38.26
7058;BME280;3570;43.080;25.628;2023-08-07T10:19:25;-20294.91;;;29.07;39.10
7058;BME280;3570;43.080;25.628;2023-08-07T10:22:09;-20284.69;;;28.71;38.30
7058;BME280;3570;43.080;25.628;2023-08-07T10:24:53;-20274.19;;;28.35;38.17
7058;BME280;3570;43.080;25.628;2023-08-07T10:27:42;-20299.66;;;29.24;36.91
7058;BME280;3570;43.080;25.628;2023-08-07T10:30:27;-20296.19;;;29.12;37.22
7058;BME280;3570;43.080;25.628;2023-08-07T10:33:13;-20318.59;;;29.90;36.91
7058;BME280;3570;43.080;25.628;2023-08-07T10:35:58;-20347.44;;;30.91;35.63
7058;BME280;3570;43.080;25.628;2023-08-07T10:38:50;-20330.81;;;30.33;35.49
7058;BME280;3570;43.080;25.628;2023-08-07T10:41:47;-20315.31;;;29.79;34.22
7058;BME280;3570;43.080;25.628;2023-08-07T10:44:32;-20322.19;;;30.03;35.46
7058;BME280;3570;43.080;25.628;2023-08-07T10:47:32;-20304.25;;;29.40;36.38
7058;BME280;3570;43.080;25.628;2023-08-07T10:50:17;-20313.72;;;29.73;35.26
7058;BME280;3570;43.080;25.628;2023-08-07T10:53:04;-20365.81;;;31.56;34.39
7058;BME280;3570;43.080;25.628;2023-08-07T10:55:49;-20387.00;;;32.30;32.71
7058;BME280;3570;43.080;25.628;2023-08-07T10:58:36;-20354.63;;;31.16;33.16
7058;BME280;3570;43.080;25.628;2023-08-07T11:01:34;-20382.72;;;32.15;32.59
7058;BME280;3570;43.080;25.628;2023-08-07T11:04:19;-20381.84;;;32.12;31.51
7058;BME280;3570;43.080;25.628;2023-08-07T11:07:03;-20364.66;;;31.52;33.63
7058;BME280;3570;43.080;25.628;2023-08-07T11:09:48;-20365.09;;;31.53;33.53
7058;BME280;3570;43.080;25.628;2023-08-07T11:12:32;-20373.97;;;31.84;32.09
7058;BME280;3570;43.080;25.628;2023-08-07T11:15:16;-20401.75;;;32.82;31.18
7058;BME280;3570;43.080;25.628;2023-08-07T11:18:01;-20390.59;;;32.42;31.91
7058;BME280;3570;43.080;25.628;2023-08-07T11:20:44;-20362.22;;;31.43;31.85
7058;BME280;3570;43.080;25.628;2023-08-07T11:23:28;-20382.44;;;32.14;34.99
7058;BME280;3570;43.080;25.628;2023-08-07T11:26:12;-20435.97;;;34.02;31.48
7058;BME280;3570;43.080;25.628;2023-08-07T11:28:56;-20450.81;;;34.54;29.71
7058;BME280;3570;43.080;25.628;2023-08-07T11:31:41;-20432.38;;;33.89;29.10
7058;BME280;3570;43.080;25.628;2023-08-07T11:34:25;-20420.09;;;33.46;29.74
7058;BME280;3570;43.080;25.628;2023-08-07T11:37:15;-20428.53;;;33.76;29.26
7058;BME280;3570;43.080;25.628;2023-08-07T11:40:01;-20391.47;;;32.46;30.93
7058;BME280;3570;43.080;25.628;2023-08-07T11:42:46;-20366.53;;;31.58;32.83
7058;BME280;3570;43.080;25.628;2023-08-07T11:45:30;-20426.66;;;33.69;30.99
7058;BME280;3570;43.080;25.628;2023-08-07T11:48:15;-20443.81;;;34.30;29.43
7058;BME280;3570;43.080;25.628;2023-08-07T11:51:00;-20443.81;;;34.30;31.10
7058;BME280;3570;43.080;25.628;2023-08-07T11:53:45;-20472.53;;;35.31;27.52
7058;BME280;3570;43.080;25.628;2023-08-07T11:56:30;-20464.38;;;35.02;27.97
7058;BME280;3570;43.080;25.628;2023-08-07T11:59:16;-20477.25;;;35.47;27.96
7058;BME280;3570;43.080;25.628;2023-08-07T12:02:09;-20475.25;;;35.40;27.60
7058;BME280;3570;43.080;25.628;2023-08-07T12:04:58;-20449.53;;;34.50;27.46
7058;BME280;3570;43.080;25.628;2023-08-07T12:07:43;-20435.25;;;33.99;29.39
7058;BME280;3570;43.080;25.628;2023-08-07T12:10:27;-20465.09;;;35.04;27.49
7058;BME280;3570;43.080;25.628;2023-08-07T12:13:14;-20457.97;;;34.79;28.05
7058;BME280;3570;43.080;25.628;2023-08-07T12:15:58;-20419.22;;;33.43;28.77
7058;BME280;3570;43.080;25.628;2023-08-07T12:21:31;-20469.81;;;35.21;29.06
7058;BME280;3570;43.080;25.628;2023-08-07T12:24:17;-20500.91;;;36.31;25.87
7058;BME280;3570;43.080;25.628;2023-08-07T12:27:01;-20483.81;;;35.70;25.85
7058;BME280;3570;43.080;25.628;2023-08-07T12:29:46;-20473.66;;;35.35;26.19
7058;BME280;3570;43.080;25.628;2023-08-07T12:32:29;-20497.78;;;36.20;25.61
7058;BME280;3570;43.080;25.628;2023-08-07T12:35:14;-20517.88;;;36.91;25.54
7058;BME280;3570;43.080;25.628;2023-08-07T12:37:58;-20495.06;;;36.10;25.44
7058;BME280;3570;43.080;25.628;2023-08-07T12:40:42;-20493.22;;;36.04;25.83
7058;BME280;3570;43.080;25.628;2023-08-07T12:43:27;-20507.47;;;36.54;25.87
7058;BME280;3570;43.080;25.628;2023-08-07T12:46:11;-20530.97;;;37.37;25.49
7058;BME280;3570;43.080;25.628;2023-08-07T12:48:56;-20541.09;;;37.72;24.21
7058;BME280;3570;43.080;25.628;2023-08-07T12:51:40;-20485.78;;;35.77;26.19
7058;BME280;3570;43.080;25.628;2023-08-07T12:54:23;-20480.09;;;35.57;26.12
7058;BME280;3570;43.080;25.628;2023-08-07T12:57:07;-20527.84;;;37.26;23.95
7058;BME280;3570;43.080;25.628;2023-08-07T12:59:51;-20567.00;;;38.64;24.66
7058;BME280;3570;43.080;25.628;2023-08-07T13:02:35;-20599.94;;;39.81;21.75
7058;BME280;3570;43.080;25.628;2023-08-07T13:05:20;-20593.84;;;39.59;21.53
7058;BME280;3570;43.080;25.628;2023-08-07T13:08:05;-20627.19;;;40.77;22.24
7058;BME280;3570;43.080;25.628;2023-08-07T13:10:49;-20636.25;;;41.09;22.23
7058;BME280;3570;43.080;25.628;2023-08-07T13:13:33;-20614.72;;;40.33;21.52
7058;BME280;3570;43.080;25.628;2023-08-07T13:16:17;-20516.59;;;36.86;23.92
7058;BME280;3570;43.080;25.628;2023-08-07T13:19:01;-20490.94;;;35.96;24.82
7058;BME280;3570;43.080;25.628;2023-08-07T13:21:45;-20453.53;;;34.64;26.67
7058;BME280;3570;43.080;25.628;2023-08-07T13:24:29;-20474.66;;;35.38;25.81
7058;BME280;3570;43.080;25.628;2023-08-07T13:27:13;-20487.78;;;35.84;25.31
7058;BME280;3570;43.080;25.628;2023-08-07T13:29:58;-20519.88;;;36.98;23.73
7058;BME280;3570;43.080;25.628;2023-08-07T13:32:42;-20580.50;;;39.12;22.91
7058;BME280;3570;43.080;25.628;2023-08-07T13:35:26;-20637.81;;;41.15;21.50
7058;BME280;3570;43.080;25.628;2023-08-07T13:38:10;-20660.06;;;41.94;21.38
7058;BME280;3570;43.080;25.628;2023-08-07T13:40:55;-20616.97;;;40.41;20.93
7058;BME280;3570;43.080;25.628;2023-08-07T13:43:39;-20534.84;;;37.50;22.83
7058;BME280;3570;43.080;25.628;2023-08-07T13:46:24;-20523.44;;;37.10;23.17
7058;BME280;3570;43.080;25.628;2023-08-07T13:49:08;-20539.38;;;37.66;24.56
7058;BME280;3570;43.080;25.628;2023-08-07T13:51:53;-20597.53;;;39.72;22.59
7058;BME280;3570;43.080;25.628;2023-08-07T13:54:37;-20630.31;;;40.88;21.65
7058;BME280;3570;43.080;25.628;2023-08-07T13:57:21;-20646.19;;;41.45;19.64
7058;BME280;3570;43.080;25.628;2023-08-07T14:00:05;-20639.09;;;41.19;19.81
7058;BME280;3570;43.080;25.628;2023-08-07T14:02:49;-20592.28;;;39.54;21.37
7058;BME280;3570;43.080;25.628;2023-08-07T14:05:33;-20592.56;;;39.55;22.25
7058;BME280;3570;43.080;25.628;2023-08-07T14:08:17;-20625.19;;;40.70;22.01
7058;BME280;3570;43.080;25.628;2023-08-07T14:11:01;-20647.31;;;41.49;19.85
7058;BME280;3570;43.080;25.628;2023-08-07T14:13:46;-20655.94;;;41.79;19.41
7058;BME280;3570;43.080;25.628;2023-08-07T14:16:31;-20678.03;;;42.58;20.25
7058;BME280;3570;43.080;25.628;2023-08-07T14:19:15;-20616.69;;;40.40;19.50
7058;BME280;3570;43.080;25.628;2023-08-07T14:21:59;-20601.50;;;39.86;20.83
7058;BME280;3570;43.080;25.628;2023-08-07T14:24:43;-20595.97;;;39.67;20.98
7058;BME280;3570;43.080;25.628;2023-08-07T14:27:27;-20618.41;;;40.46;20.42
7058;BME280;3570;43.080;25.628;2023-08-07T14:30:11;-20584.31;;;39.25;21.22
7058;BME280;3570;43.080;25.628;2023-08-07T14:32:55;-20580.50;;;39.12;21.92
7058;BME280;3570;43.080;25.628;2023-08-07T14:35:39;-20614.13;;;40.31;20.44
7058;BME280;3570;43.080;25.628;2023-08-07T14:38:24;-20581.34;;;39.15;20.91
7058;BME280;3570;43.080;25.628;2023-08-07T14:41:08;-20563.44;;;38.51;22.70
7058;BME280;3570;43.080;25.628;2023-08-07T14:43:52;-20572.66;;;38.84;21.67
7058;BME280;3570;43.080;25.628;2023-08-07T14:46:36;-20610.88;;;40.19;21.70
7058;BME280;3570;43.080;25.628;2023-08-07T14:49:21;-20631.31;;;40.92;21.08
7058;BME280;3570;43.080;25.628;2023-08-07T14:52:06;-20599.25;;;39.78;21.30
7058;BME280;3570;43.080;25.628;2023-08-07T14:54:50;-20587.72;;;39.37;20.07
7058;BME280;3570;43.080;25.628;2023-08-07T14:57:36;-20631.44;;;40.92;21.77